createdAt,value
2023-04-01T00:00:22.162Z,98750.84
2023-04-01T00:05:26.260Z,98756.16
2023-04-01T00:10:29.772Z,98756.66
2023-04-01T00:15:34.818Z,98755.78
2023-04-01T00:20:38.360Z,98754.63
2023-04-01T00:25:41.798Z,98752.22
2023-04-01T00:30:47.060Z,98752.81
2023-04-01T00:35:51.015Z,98757.00
2023-04-01T00:41:00.725Z,98750.88
2023-04-01T00:46:05.696Z,98755.47
2023-04-01T00:51:12.028Z,98749.38
2023-04-01T00:56:18.294Z,98748.44
2023-04-01T01:01:24.342Z,98760.84
2023-04-01T01:06:39.864Z,98762.41
2023-04-01T01:11:46.877Z,98765.75
2023-04-01T01:16:57.491Z,98757.19
2023-04-01T01:22:21.461Z,98758.19
2023-04-01T01:27:24.956Z,98759.09
2023-04-01T01:32:44.955Z,98755.84
2023-04-01T01:37:52.704Z,98752.69
2023-04-01T01:42:58.811Z,98750.00
2023-04-01T01:48:02.718Z,98756.84
2023-04-01T01:53:09.473Z,98755.63
2023-04-01T01:58:16.108Z,98755.94
2023-04-01T02:03:22.385Z,98757.94
2023-04-01T02:08:30.136Z,98765.91
2023-04-01T02:13:38.222Z,98759.69
2023-04-01T02:18:42.304Z,98761.94
2023-04-01T02:23:47.768Z,98758.44
2023-04-01T02:28:52.219Z,98766.56
2023-04-01T02:33:56.480Z,98766.94
2023-04-01T02:39:03.413Z,98766.56
2023-04-01T02:44:08.156Z,98760.25
2023-04-01T02:49:11.836Z,98763.19
2023-04-01T02:54:16.776Z,98767.59
2023-04-01T02:59:20.623Z,98772.81
2023-04-01T03:04:24.020Z,98781.09
2023-04-01T03:09:29.190Z,98775.59
2023-04-01T03:14:33.088Z,98768.94
2023-04-01T03:19:36.627Z,98773.09
2023-04-01T03:24:45.899Z,98769.41
2023-04-01T03:29:49.500Z,98773.09
2023-04-01T03:34:53.062Z,98766.56
2023-04-01T03:39:57.979Z,98777.38
2023-04-01T03:45:02.064Z,98777.41
2023-04-01T03:50:06.740Z,98779.75
2023-04-01T03:55:11.965Z,98785.94
2023-04-01T04:00:17.153Z,98789.41
2023-04-01T04:05:23.077Z,98780.53
2023-04-01T04:10:30.109Z,98789.00
2023-04-01T04:15:33.877Z,98791.66
2023-04-01T04:20:37.586Z,98792.84
2023-04-01T04:25:42.695Z,98794.31
2023-04-01T04:30:46.545Z,98792.47
2023-04-01T04:35:50.435Z,98799.09
2023-04-01T04:40:55.864Z,98808.03
2023-04-01T04:45:59.402Z,98812.63
2023-04-01T04:51:03.224Z,98799.84
2023-04-01T04:56:08.685Z,98816.94
2023-04-01T05:01:20.868Z,98824.53
2023-04-01T05:06:26.564Z,98815.56
2023-04-01T05:11:31.621Z,98825.84
2023-04-01T05:16:35.377Z,98822.63
2023-04-01T05:21:39.090Z,98825.84
2023-04-01T05:26:44.114Z,98825.09
2023-04-01T05:31:47.767Z,98830.44
2023-04-01T05:36:51.307Z,98830.53
2023-04-01T05:41:56.263Z,98831.97
2023-04-01T05:46:59.696Z,98838.53
2023-04-01T05:52:04.104Z,98845.34
2023-04-01T05:57:10.734Z,98844.97
2023-04-01T06:02:14.557Z,98841.66
2023-04-01T06:07:19.547Z,98842.44
2023-04-01T06:12:35.073Z,98851.06
2023-04-01T06:17:49.475Z,98849.44
2023-04-01T06:23:12.007Z,98851.56
2023-04-01T06:28:37.489Z,98863.94
2023-04-01T06:33:55.192Z,98856.22
2023-04-01T06:39:11.274Z,98873.50
2023-04-01T06:44:20.998Z,98868.63
2023-04-01T06:49:51.500Z,98873.50
2023-04-01T06:55:26.494Z,98876.69
2023-04-01T07:00:53.368Z,98875.59
2023-04-01T07:05:59.285Z,98881.19
2023-04-01T07:11:05.603Z,98883.41
2023-04-01T07:16:32.146Z,98879.28
2023-04-01T07:21:39.279Z,98893.97
2023-04-01T07:26:55.135Z,98895.03
2023-04-01T07:32:11.972Z,98901.56
2023-04-01T07:37:17.914Z,98908.25
2023-04-01T07:42:29.963Z,98912.00
2023-04-01T07:47:43.984Z,98919.28
2023-04-01T07:52:53.361Z,98925.09
2023-04-01T07:58:06.220Z,98920.91
2023-04-01T08:03:25.400Z,98923.53
2023-04-01T08:08:38.192Z,98931.88
2023-04-01T08:14:06.357Z,98931.47
2023-04-01T08:19:39.100Z,98937.44
2023-04-01T08:24:47.571Z,98945.34
2023-04-01T08:29:59.602Z,98941.84
2023-04-01T08:35:10.599Z,98952.13
2023-04-01T08:40:40.284Z,98954.78
2023-04-01T08:45:55.470Z,98950.31
2023-04-01T08:51:29.133Z,98962.34
2023-04-01T08:56:38.969Z,98967.66
2023-04-01T09:02:00.865Z,98960.84
2023-04-01T09:07:37.020Z,98967.69
2023-04-01T09:13:10.868Z,98974.25
2023-04-01T09:18:29.651Z,98967.31
2023-04-01T09:23:49.088Z,98979.88
2023-04-01T09:29:01.551Z,98979.25
2023-04-01T09:34:27.672Z,98988.13
2023-04-01T09:39:40.588Z,98995.31
2023-04-01T09:44:50.598Z,99008.78
2023-04-01T09:50:27.059Z,98998.22
2023-04-01T09:56:00.953Z,99010.53
2023-04-01T10:01:22.200Z,99006.69
2023-04-01T10:07:12.587Z,99011.75
2023-04-01T10:12:45.844Z,99027.72
2023-04-01T10:18:22.811Z,99026.09
2023-04-01T10:24:02.844Z,99027.53
2023-04-01T10:29:36.966Z,99034.78
2023-04-01T10:35:25.652Z,99029.59
2023-04-01T10:40:41.709Z,99035.34
2023-04-01T10:46:24.022Z,99032.03
2023-04-01T10:52:03.450Z,99036.19
2023-04-01T10:57:58.100Z,99044.88
2023-04-01T11:04:20.479Z,99046.13
2023-04-01T11:10:10.442Z,99049.44
2023-04-01T11:15:47.516Z,99057.88
2023-04-01T11:21:26.556Z,99066.34
2023-04-01T11:26:36.145Z,99070.06
2023-04-01T11:32:09.671Z,99065.97
2023-04-01T11:37:22.822Z,99070.56
2023-04-01T11:42:53.721Z,99077.34
2023-04-01T11:48:44.920Z,99080.44
2023-04-01T11:53:55.245Z,99086.59
2023-04-01T11:59:23.566Z,99092.59
2023-04-01T12:04:58.379Z,99092.72
2023-04-01T12:10:08.363Z,99088.06
2023-04-01T12:15:22.333Z,99089.97
2023-04-01T12:20:32.823Z,99110.28
2023-04-01T12:25:58.501Z,99105.94
2023-04-01T12:31:12.210Z,99110.38
2023-04-01T12:36:26.012Z,99102.53
2023-04-01T12:41:35.137Z,99120.47
2023-04-01T12:46:49.121Z,99118.00
2023-04-01T12:52:11.560Z,99138.28
2023-04-01T12:57:32.782Z,99137.44
2023-04-01T13:02:42.394Z,99153.13
2023-04-01T13:08:08.957Z,99166.19
2023-04-01T13:13:27.436Z,99167.50
2023-04-01T13:18:37.242Z,99174.53
2023-04-01T13:23:52.241Z,99181.94
2023-04-01T13:29:02.169Z,99184.59
2023-04-01T13:34:19.945Z,99183.22
2023-04-01T13:39:39.438Z,99185.41
2023-04-01T13:44:48.475Z,99199.06
2023-04-01T13:50:23.107Z,99208.72
2023-04-01T13:55:41.772Z,99208.13
2023-04-01T14:00:57.354Z,99220.72
2023-04-01T14:06:21.537Z,99230.47
2023-04-01T14:11:29.425Z,99245.03
2023-04-01T14:17:01.645Z,99252.00
2023-04-01T14:22:08.215Z,99264.59
2023-04-01T14:27:34.741Z,99272.00
2023-04-01T14:32:49.412Z,99279.16
2023-04-01T14:38:04.196Z,99289.97
2023-04-01T14:43:26.669Z,99300.63
2023-04-01T14:48:34.700Z,99299.50
2023-04-01T14:53:42.715Z,99308.72
2023-04-01T14:58:47.916Z,99327.78
2023-04-01T15:03:59.056Z,99344.66
2023-04-01T15:09:07.320Z,99349.63
2023-04-01T15:14:28.382Z,99365.25
2023-04-01T15:19:42.287Z,99371.59
2023-04-01T15:24:49.522Z,99388.47
2023-04-01T15:30:15.720Z,99394.09
2023-04-01T15:35:32.406Z,99416.97
2023-04-01T15:40:43.192Z,99408.50
2023-04-01T15:45:53.574Z,99437.63
2023-04-01T15:51:04.883Z,99441.38
2023-04-01T15:56:23.652Z,99459.13
2023-04-01T16:01:35.216Z,99464.53
2023-04-01T16:06:58.676Z,99475.06
2023-04-01T16:12:06.645Z,99491.38
2023-04-01T16:17:32.135Z,99502.38
2023-04-01T16:22:40.773Z,99514.06
2023-04-01T16:27:48.754Z,99505.53
2023-04-01T16:32:55.772Z,99522.66
2023-04-01T16:38:07.693Z,99535.66
2023-04-01T16:43:22.090Z,99545.03
2023-04-01T16:48:30.573Z,99554.09
2023-04-01T16:53:44.030Z,99570.00
2023-04-01T16:59:01.866Z,99570.00
2023-04-01T17:04:10.544Z,99596.88
2023-04-01T17:09:26.389Z,99602.00
2023-04-01T17:14:32.587Z,99617.25
2023-04-01T17:19:51.788Z,99628.63
2023-04-01T17:25:14.934Z,99640.00
2023-04-01T17:30:36.783Z,99657.19
2023-04-01T17:35:44.408Z,99671.97
2023-04-01T17:40:59.680Z,99685.13
2023-04-01T17:46:07.742Z,99692.91
2023-04-01T17:51:22.393Z,99705.28
2023-04-01T17:56:41.475Z,99716.75
2023-04-01T18:01:50.179Z,99731.13
2023-04-01T18:07:20.987Z,99756.03
2023-04-01T18:12:34.736Z,99761.34
2023-04-01T18:17:54.992Z,99773.78
2023-04-01T18:23:01.182Z,99787.56
2023-04-01T18:28:21.310Z,99805.38
2023-04-01T18:33:28.581Z,99814.09
2023-04-01T18:38:41.287Z,99824.69
2023-04-01T18:43:59.353Z,99839.19
2023-04-01T18:49:09.375Z,99847.00
2023-04-01T18:54:16.251Z,99862.53
2023-04-01T18:59:28.322Z,99874.53
2023-04-01T19:04:36.020Z,99872.81
2023-04-01T19:09:47.062Z,99900.22
2023-04-01T19:15:10.595Z,99907.47
2023-04-01T19:20:20.112Z,99918.94
2023-04-01T19:25:33.620Z,99936.44
2023-04-01T19:30:55.576Z,99937.84
2023-04-01T19:36:06.301Z,99947.28
2023-04-01T19:41:23.660Z,99964.72
2023-04-01T19:46:32.781Z,99969.63
2023-04-01T19:51:40.823Z,99993.31
2023-04-01T19:56:49.787Z,100000.22
2023-04-01T20:02:00.333Z,100020.78
2023-04-01T20:07:09.463Z,100032.50
2023-04-01T20:12:17.820Z,100032.25
2023-04-01T20:17:24.462Z,100050.34
2023-04-01T20:22:39.301Z,100062.94
2023-04-01T20:27:47.500Z,100082.25
2023-04-01T20:33:04.064Z,100090.25
2023-04-01T20:38:28.420Z,100105.84
2023-04-01T20:44:07.487Z,100100.63
2023-04-01T20:49:26.169Z,100119.72
2023-04-01T20:54:43.686Z,100126.75
2023-04-01T21:00:01.728Z,100138.84
2023-04-01T21:05:24.689Z,100152.88
2023-04-01T21:10:43.339Z,100165.63
2023-04-01T21:15:53.248Z,100181.41
2023-04-01T21:21:18.267Z,100198.53
2023-04-01T21:26:31.764Z,100198.53
2023-04-01T21:31:46.808Z,100210.84
2023-04-01T21:37:03.918Z,100224.72
2023-04-01T21:42:19.537Z,100236.97
2023-04-01T21:47:56.259Z,100246.72
2023-04-01T21:53:16.581Z,100257.94
2023-04-01T21:59:11.203Z,100265.72
2023-04-01T22:04:36.274Z,100281.13
2023-04-01T22:09:43.977Z,100283.00
2023-04-01T22:14:51.181Z,100294.44
2023-04-01T22:19:58.260Z,100304.59
2023-04-01T22:25:09.061Z,100306.84
2023-04-01T22:30:19.616Z,100312.38
2023-04-01T22:35:32.618Z,100323.94
2023-04-01T22:40:43.425Z,100342.19
2023-04-01T22:46:05.648Z,100358.94
2023-04-01T22:51:16.086Z,100362.34
2023-04-01T22:56:24.194Z,100374.06
2023-04-01T23:01:30.908Z,100381.03
2023-04-01T23:06:39.343Z,100382.78
2023-04-01T23:11:49.671Z,100397.56
2023-04-01T23:16:56.867Z,100411.19
2023-04-01T23:22:07.021Z,100420.06
2023-04-01T23:27:13.940Z,100418.47
2023-04-01T23:32:18.473Z,100431.63
2023-04-01T23:37:22.551Z,100439.63
2023-04-01T23:42:28.986Z,100453.13
2023-04-01T23:47:33.782Z,100457.03
2023-04-01T23:52:38.899Z,100470.03
2023-04-01T23:57:43.676Z,100485.75
